createdAt,value
2022-10-05T00:01:30.387Z,98364.72
2022-10-05T00:04:03.418Z,98349.09
2022-10-05T00:06:32.861Z,98344.59
2022-10-05T00:09:02.251Z,98386.16
2022-10-05T00:11:30.348Z,98404.47
2022-10-05T00:13:59.391Z,98427.06
2022-10-05T00:16:27.362Z,98402.31
2022-10-05T00:18:55.400Z,98446.88
2022-10-05T00:21:26.400Z,98460.00
2022-10-05T00:23:59.820Z,98430.75
2022-10-05T00:26:33.143Z,98423.25
2022-10-05T00:29:02.946Z,98453.19
2022-10-05T00:31:33.911Z,98456.50
2022-10-05T00:34:01.916Z,98467.81
2022-10-05T00:36:30.050Z,98426.59
2022-10-05T00:39:02.438Z,98450.03
2022-10-05T00:41:40.389Z,98440.56
2022-10-05T00:44:26.462Z,98446.72
2022-10-05T00:46:58.546Z,98420.94
2022-10-05T00:49:43.367Z,98430.25
2022-10-05T00:52:23.569Z,98413.78
2022-10-05T00:55:00.984Z,98392.34
2022-10-05T00:57:38.302Z,98394.00
2022-10-05T01:00:08.880Z,98375.00
2022-10-05T01:02:48.484Z,98349.06
2022-10-05T01:05:29.761Z,98378.38
2022-10-05T01:08:06.123Z,98371.34
2022-10-05T01:10:43.630Z,98364.69
2022-10-05T01:13:20.994Z,98415.28
2022-10-05T01:15:56.641Z,98407.47
2022-10-05T01:18:38.809Z,98412.44
2022-10-05T01:21:15.089Z,98437.56
2022-10-05T01:24:17.277Z,98432.25
2022-10-05T01:27:17.742Z,98436.72
2022-10-05T01:29:51.086Z,98415.44
2022-10-05T01:32:26.285Z,98443.72
2022-10-05T01:35:02.275Z,98415.28
2022-10-05T01:37:41.025Z,98443.38
2022-10-05T01:40:14.312Z,98468.16
2022-10-05T01:42:54.366Z,98431.75
2022-10-05T01:45:34.089Z,98491.44
2022-10-05T01:48:09.483Z,98510.75
2022-10-05T01:50:50.221Z,98543.41
2022-10-05T01:53:29.243Z,98534.06
2022-10-05T01:56:07.457Z,98534.22
2022-10-05T01:58:44.285Z,98533.91
2022-10-05T02:01:19.482Z,98561.53
2022-10-05T02:03:53.708Z,98616.28
2022-10-05T02:06:24.640Z,98616.28
2022-10-05T02:08:59.676Z,98619.66
2022-10-05T02:11:27.871Z,98663.97
2022-10-05T02:13:59.825Z,98683.63
2022-10-05T02:16:35.661Z,98666.31
2022-10-05T02:19:09.445Z,98674.78
2022-10-05T02:21:37.970Z,98707.09
2022-10-05T02:24:17.572Z,98715.94
2022-10-05T02:26:47.931Z,98715.94
2022-10-05T02:29:19.819Z,98731.41
2022-10-05T02:31:55.448Z,98732.59
2022-10-05T02:34:26.210Z,98717.75
2022-10-05T02:37:03.631Z,98718.91
2022-10-05T02:39:45.186Z,98785.25
2022-10-05T02:42:23.728Z,98820.09
2022-10-05T02:44:58.394Z,98831.25
2022-10-05T02:47:34.831Z,98843.25
2022-10-05T02:50:13.483Z,98835.91
2022-10-05T02:52:54.269Z,98862.91
2022-10-05T02:55:34.384Z,98893.91
2022-10-05T02:58:09.600Z,98894.59
2022-10-05T03:00:43.756Z,98867.09
2022-10-05T03:03:22.652Z,98870.41
2022-10-05T03:05:56.044Z,98877.09
2022-10-05T03:08:31.375Z,98858.91
2022-10-05T03:11:05.600Z,98888.91
2022-10-05T03:13:42.057Z,98905.22
2022-10-05T03:16:21.746Z,98931.47
2022-10-05T03:19:03.627Z,98906.94
2022-10-05T03:21:44.007Z,98893.91
2022-10-05T03:24:37.718Z,98903.59
2022-10-05T03:27:14.515Z,98939.28
2022-10-05T03:29:48.569Z,98933.97
2022-10-05T03:32:26.513Z,98918.59
2022-10-05T03:35:03.977Z,98924.47
2022-10-05T03:37:41.954Z,98944.63
2022-10-05T03:40:21.671Z,98946.31
2022-10-05T03:43:00.045Z,98933.59
2022-10-05T03:45:34.071Z,98937.91
2022-10-05T03:48:06.715Z,98969.31
2022-10-05T03:50:45.864Z,98998.34
2022-10-05T03:53:20.079Z,98985.66
2022-10-05T03:55:55.384Z,98964.47
2022-10-05T03:58:28.161Z,98976.81
2022-10-05T04:01:01.254Z,98967.31
2022-10-05T04:03:35.849Z,98931.91
2022-10-05T04:06:11.727Z,98894.72
2022-10-05T04:08:48.345Z,98892.91
2022-10-05T04:11:22.464Z,98922.56
2022-10-05T04:13:55.411Z,98934.59
2022-10-05T04:16:28.032Z,98921.72
2022-10-05T04:19:02.377Z,98936.56
2022-10-05T04:21:36.226Z,98926.75
2022-10-05T04:24:12.349Z,98946.75
2022-10-05T04:26:47.217Z,98925.91
2022-10-05T04:29:22.764Z,98931.25
2022-10-05T04:32:02.748Z,98895.06
2022-10-05T04:34:48.333Z,98931.25
2022-10-05T04:37:23.178Z,98953.09
2022-10-05T04:40:03.934Z,98949.59
2022-10-05T04:42:37.653Z,98930.56
2022-10-05T04:45:26.690Z,98938.56
2022-10-05T04:48:09.221Z,98972.97
2022-10-05T04:50:51.961Z,98986.97
2022-10-05T04:53:30.565Z,98992.97
2022-10-05T04:56:07.051Z,99024.66
2022-10-05T04:58:53.395Z,99027.00
2022-10-05T05:01:38.292Z,99027.66
2022-10-05T05:04:26.807Z,99027.84
2022-10-05T05:07:07.780Z,99023.66
2022-10-05T05:10:04.360Z,99071.22
2022-10-05T05:12:43.267Z,99048.00
2022-10-05T05:15:27.361Z,99061.03
2022-10-05T05:18:10.439Z,99109.47
2022-10-05T05:20:53.151Z,99152.84
2022-10-05T05:23:28.907Z,99159.19
2022-10-05T05:26:09.641Z,99178.22
2022-10-05T05:28:49.024Z,99141.50
2022-10-05T05:31:25.662Z,99147.69
2022-10-05T05:34:04.413Z,99174.56
2022-10-05T05:36:47.470Z,99184.91
2022-10-05T05:39:25.344Z,99228.53
2022-10-05T05:42:01.569Z,99237.06
2022-10-05T05:44:38.579Z,99217.16
2022-10-05T05:47:19.809Z,99224.03
2022-10-05T05:50:06.566Z,99247.72
2022-10-05T05:52:40.416Z,99239.19
2022-10-05T05:55:15.053Z,99241.03
2022-10-05T05:57:51.470Z,99232.34
2022-10-05T06:00:23.189Z,99268.44
2022-10-05T06:02:58.397Z,99282.47
2022-10-05T06:05:32.418Z,99282.47
2022-10-05T06:08:07.207Z,99251.38
2022-10-05T06:10:42.189Z,99221.66
2022-10-05T06:13:18.267Z,99267.25
2022-10-05T06:15:52.111Z,99265.09
2022-10-05T06:18:23.191Z,99316.41
2022-10-05T06:20:58.663Z,99322.59
2022-10-05T06:23:31.457Z,99345.03
2022-10-05T06:26:13.269Z,99354.16
2022-10-05T06:28:43.229Z,99328.59
2022-10-05T06:31:25.206Z,99325.41
2022-10-05T06:33:55.970Z,99352.31
2022-10-05T06:36:40.010Z,99354.88
2022-10-05T06:39:28.987Z,99337.63
2022-10-05T06:42:13.887Z,99341.97
2022-10-05T06:44:53.503Z,99363.56
2022-10-05T06:47:30.860Z,99372.25
2022-10-05T06:50:14.274Z,99392.47
2022-10-05T06:52:56.047Z,99428.91
2022-10-05T06:55:31.351Z,99402.31
2022-10-05T06:58:27.918Z,99439.28
2022-10-05T07:01:04.338Z,99410.69
2022-10-05T07:03:42.103Z,99412.34
2022-10-05T07:06:16.436Z,99431.44
2022-10-05T07:09:09.251Z,99432.41
2022-10-05T07:12:03.723Z,99427.22
2022-10-05T07:14:46.113Z,99401.16
2022-10-05T07:17:27.682Z,99434.25
2022-10-05T07:20:06.550Z,99455.63
2022-10-05T07:22:51.568Z,99486.41
2022-10-05T07:25:25.032Z,99495.28
2022-10-05T07:28:00.960Z,99497.94
2022-10-05T07:30:30.800Z,99521.25
2022-10-05T07:33:09.454Z,99517.88
2022-10-05T07:36:06.767Z,99473.53
2022-10-05T07:38:40.102Z,99548.47
2022-10-05T07:41:14.887Z,99545.66
2022-10-05T07:44:02.090Z,99566.72
2022-10-05T07:46:45.690Z,99585.81
2022-10-05T07:49:22.706Z,99601.38
2022-10-05T07:51:56.502Z,99601.00
2022-10-05T07:54:30.390Z,99608.56
2022-10-05T07:57:07.254Z,99587.47
2022-10-05T07:59:39.905Z,99623.22
2022-10-05T08:02:18.547Z,99613.59
2022-10-05T08:04:54.546Z,99642.56
2022-10-05T08:09:56.731Z,99663.47
2022-10-05T08:12:32.076Z,99667.00
2022-10-05T08:15:06.694Z,99677.38
2022-10-05T08:17:45.440Z,99678.22
2022-10-05T08:20:43.406Z,99721.91
2022-10-05T08:23:21.245Z,99733.13
2022-10-05T08:25:58.289Z,99749.84
2022-10-05T08:28:29.536Z,99790.44
2022-10-05T08:31:04.399Z,99765.47
2022-10-05T08:33:42.662Z,99819.25
2022-10-05T08:36:15.509Z,99869.16
2022-10-05T08:38:49.923Z,99881.44
2022-10-05T08:41:48.600Z,99932.78
2022-10-05T08:45:05.982Z,99927.56
2022-10-05T08:48:05.023Z,99984.38
2022-10-05T08:50:51.360Z,100023.50
2022-10-05T08:53:29.107Z,100026.34
2022-10-05T08:56:28.920Z,100044.09
2022-10-05T08:59:16.864Z,100053.34
2022-10-05T09:02:12.776Z,100091.06
2022-10-05T09:05:16.603Z,100079.81
2022-10-05T09:08:05.264Z,100111.75
2022-10-05T09:11:07.224Z,100104.00
2022-10-05T09:13:50.740Z,100105.69
2022-10-05T09:16:37.284Z,100123.31
2022-10-05T09:19:32.054Z,100138.91
2022-10-05T09:22:12.798Z,100129.19
2022-10-05T09:24:55.195Z,100120.78
2022-10-05T09:27:36.718Z,100127.66
2022-10-05T09:30:19.359Z,100146.84
2022-10-05T09:33:13.657Z,100216.66
2022-10-05T09:36:15.563Z,100222.47
2022-10-05T09:39:10.708Z,100261.31
2022-10-05T09:41:57.459Z,100297.81
2022-10-05T09:44:58.149Z,100298.25
2022-10-05T09:47:59.838Z,100293.75
2022-10-05T09:51:07.478Z,100320.66
2022-10-05T09:54:09.722Z,100320.94
2022-10-05T09:57:26.686Z,100335.59
2022-10-05T10:00:21.664Z,100336.44
2022-10-05T10:03:22.796Z,100352.22
2022-10-05T10:06:20.950Z,100382.41
2022-10-05T10:09:17.331Z,100410.06
2022-10-05T10:12:05.249Z,100444.19
2022-10-05T10:15:03.869Z,100467.88
2022-10-05T10:18:03.123Z,100517.66
2022-10-05T10:20:43.191Z,100535.19
2022-10-05T10:23:45.077Z,100534.34
2022-10-05T10:26:36.747Z,100556.50
2022-10-05T10:29:42.939Z,100614.91
2022-10-05T10:32:42.197Z,100597.69
2022-10-05T10:35:32.496Z,100661.38
2022-10-05T10:38:41.619Z,100711.19
2022-10-05T10:41:48.736Z,100752.28
2022-10-05T10:44:53.782Z,100756.66
2022-10-05T10:47:48.323Z,100686.91
2022-10-05T10:50:51.196Z,100667.44
2022-10-05T10:53:45.171Z,100655.41
2022-10-05T10:56:30.353Z,100675.63
2022-10-05T10:59:37.357Z,100720.94
2022-10-05T11:02:23.433Z,100730.69
2022-10-05T11:05:09.359Z,100680.97
2022-10-05T11:08:05.875Z,100692.84
2022-10-05T11:10:58.878Z,100699.06
2022-10-05T11:13:55.786Z,100700.03
2022-10-05T11:16:47.597Z,100698.34
2022-10-05T11:19:40.419Z,100716.72
2022-10-05T11:22:40.089Z,100732.66
2022-10-05T11:25:44.567Z,100712.31
2022-10-05T11:28:46.117Z,100734.22
2022-10-05T11:32:00.206Z,100767.13
2022-10-05T11:35:02.291Z,100767.53
2022-10-05T11:38:03.117Z,100751.59
2022-10-05T11:41:13.885Z,100799.06
2022-10-05T11:44:04.589Z,100823.66
2022-10-05T11:46:42.911Z,100863.78
2022-10-05T11:49:23.389Z,100849.94
2022-10-05T11:52:06.374Z,100812.22
2022-10-05T11:57:49.791Z,100844.56
2022-10-05T12:00:21.220Z,100859.53
2022-10-05T12:03:13.193Z,100901.53
2022-10-05T12:05:49.838Z,100919.34
2022-10-05T12:08:28.464Z,100924.72
2022-10-05T12:11:08.411Z,100959.53
2022-10-05T12:13:48.005Z,100968.28
2022-10-05T12:16:22.211Z,100981.44
2022-10-05T12:18:59.973Z,100989.50
2022-10-05T12:21:40.963Z,100985.81
2022-10-05T12:24:21.232Z,100998.81
2022-10-05T12:26:59.085Z,100995.59
2022-10-05T12:29:37.147Z,100997.97
2022-10-05T12:32:14.593Z,101034.03
2022-10-05T12:34:51.175Z,100983.41
2022-10-05T12:37:40.810Z,101022.88
2022-10-05T12:40:27.996Z,101010.56
2022-10-05T12:43:15.568Z,100992.19
2022-10-05T12:45:57.856Z,100979.75
2022-10-05T12:48:42.377Z,100980.72
2022-10-05T12:51:17.980Z,100956.97
2022-10-05T12:53:53.163Z,100925.44
2022-10-05T12:56:32.929Z,100949.78
2022-10-05T12:59:07.791Z,100966.59
2022-10-05T13:01:42.991Z,100890.09
2022-10-05T13:04:26.853Z,100916.66
2022-10-05T13:07:34.044Z,100844.56
2022-10-05T13:10:18.523Z,100872.97
2022-10-05T13:12:57.308Z,100896.31
2022-10-05T13:15:30.804Z,100885.84
2022-10-05T13:18:18.159Z,100892.78
2022-10-05T13:20:52.220Z,100898.84
2022-10-05T13:23:31.865Z,100851.06
2022-10-05T13:26:08.068Z,100829.31
2022-10-05T13:28:42.701Z,100846.41
2022-10-05T13:31:17.200Z,100825.63
2022-10-05T13:34:02.041Z,100841.31
2022-10-05T13:36:40.339Z,100766.00
2022-10-05T13:39:21.916Z,100730.13
2022-10-05T13:41:55.715Z,100745.66
2022-10-05T13:44:31.108Z,100701.19
2022-10-05T13:47:03.176Z,100639.03
2022-10-05T13:49:43.229Z,100673.06
2022-10-05T13:52:26.883Z,100639.75
2022-10-05T13:55:54.693Z,100628.59
2022-10-05T13:58:33.824Z,100617.88
2022-10-05T14:01:03.961Z,100599.81
2022-10-05T14:03:34.933Z,100584.16
2022-10-05T14:06:12.085Z,100577.81
2022-10-05T14:08:50.848Z,100591.06
2022-10-05T14:11:27.373Z,100581.19
2022-10-05T14:14:05.396Z,100549.13
2022-10-05T14:16:35.674Z,100546.47
2022-10-05T14:19:20.124Z,100555.91
2022-10-05T14:21:55.800Z,100469.88
2022-10-05T14:24:44.131Z,100517.53
2022-10-05T14:27:22.557Z,100523.59
2022-10-05T14:29:59.851Z,100519.94
2022-10-05T14:32:31.935Z,100526.28
2022-10-05T14:35:15.704Z,100519.22
2022-10-05T14:37:53.013Z,100528.28
2022-10-05T14:40:28.710Z,100522.91
2022-10-05T14:42:56.866Z,100535.03
2022-10-05T14:45:26.415Z,100517.00
2022-10-05T14:48:03.371Z,100499.06
2022-10-05T14:50:32.479Z,100478.06
2022-10-05T14:53:17.809Z,100503.44
2022-10-05T14:56:03.081Z,100502.03
2022-10-05T14:59:01.716Z,100571.75
2022-10-05T15:01:31.646Z,100589.22
2022-10-05T15:04:18.147Z,100564.25
2022-10-05T15:06:57.609Z,100620.00
2022-10-05T15:10:04.331Z,100704.00
2022-10-05T15:12:35.874Z,100703.03
2022-10-05T15:15:11.552Z,100703.88
2022-10-05T15:17:46.608Z,100696.25
2022-10-05T15:20:25.736Z,100685.91
2022-10-05T15:23:00.473Z,100688.59
2022-10-05T15:25:37.276Z,100696.25
2022-10-05T15:28:13.103Z,100703.31
2022-10-05T15:30:49.003Z,100740.72
2022-10-05T15:33:22.542Z,100744.38
2022-10-05T15:36:02.425Z,100711.06
2022-10-05T15:38:36.732Z,100687.47
2022-10-05T15:41:15.034Z,100655.28
2022-10-05T15:44:00.113Z,100659.38
2022-10-05T15:46:35.628Z,100666.56
2022-10-05T15:49:16.391Z,100688.31
2022-10-05T15:51:54.883Z,100670.81
2022-10-05T15:54:51.129Z,100679.56
2022-10-05T15:57:26.731Z,100675.31
2022-10-05T16:00:04.111Z,100639.47
2022-10-05T16:02:41.327Z,100640.31
2022-10-05T16:05:47.850Z,100652.47
2022-10-05T16:08:51.815Z,100644.84
2022-10-05T16:11:30.966Z,100602.22
2022-10-05T16:14:15.562Z,100607.03
2022-10-05T16:16:52.249Z,100596.88
2022-10-05T16:19:29.761Z,100609.84
2022-10-05T16:22:07.256Z,100571.16
2022-10-05T16:25:01.830Z,100582.63
2022-10-05T16:27:41.843Z,100552.41
2022-10-05T16:30:17.381Z,100577.66
2022-10-05T16:32:54.423Z,100599.41
2022-10-05T16:35:33.375Z,100577.34
2022-10-05T16:38:16.837Z,100546.59
2022-10-05T16:41:01.964Z,100548.44
2022-10-05T16:43:44.903Z,100543.38
2022-10-05T16:46:27.835Z,100505.16
2022-10-05T16:49:04.953Z,100475.13
2022-10-05T16:52:36.035Z,100484.81
2022-10-05T16:55:12.107Z,100499.94
2022-10-05T16:57:45.201Z,100424.88
2022-10-05T17:00:20.715Z,100458.47
2022-10-05T17:03:21.603Z,100453.63
2022-10-05T17:06:06.571Z,100451.53
2022-10-05T17:08:57.664Z,100432.91
2022-10-05T17:11:39.764Z,100456.91
2022-10-05T17:14:29.204Z,100448.13
2022-10-05T17:17:15.990Z,100419.53
2022-10-05T17:19:57.333Z,100373.16
2022-10-05T17:22:29.524Z,100376.81
2022-10-05T17:25:05.845Z,100375.53
2022-10-05T17:27:51.012Z,100379.91
2022-10-05T17:30:48.961Z,100379.91
2022-10-05T17:33:27.472Z,100383.44
2022-10-05T17:36:19.337Z,100394.00
2022-10-05T17:38:50.234Z,100402.75
2022-10-05T17:41:21.348Z,100429.25
2022-10-05T17:44:27.865Z,100420.50
2022-10-05T17:47:01.088Z,100431.63
2022-10-05T17:50:14.176Z,100418.53
2022-10-05T17:53:02.804Z,100401.34
2022-10-05T17:56:03.264Z,100428.97
2022-10-05T17:59:02.902Z,100436.00
2022-10-05T18:01:33.934Z,100449.25
2022-10-05T18:04:30.700Z,100425.03
2022-10-05T18:07:04.629Z,100441.66
2022-10-05T18:09:54.899Z,100429.94
2022-10-05T18:12:48.637Z,100410.22
2022-10-05T18:15:46.624Z,100423.88
2022-10-05T18:18:54.739Z,100449.25
2022-10-05T18:21:40.335Z,100464.94
2022-10-05T18:24:36.561Z,100410.66
2022-10-05T18:27:17.084Z,100424.72
2022-10-05T18:30:09.033Z,100411.91
2022-10-05T18:32:52.101Z,100395.97
2022-10-05T18:35:26.663Z,100385.56
2022-10-05T18:38:05.815Z,100401.19
2022-10-05T18:40:45.645Z,100420.81
2022-10-05T18:43:29.407Z,100450.09
2022-10-05T18:46:26.352Z,100470.41
2022-10-05T18:49:07.533Z,100517.03
2022-10-05T18:51:50.981Z,100504.59
2022-10-05T18:54:36.712Z,100513.34
2022-10-05T18:58:16.822Z,100524.91
2022-10-05T19:01:16.965Z,100539.56
2022-10-05T19:03:57.593Z,100539.00
2022-10-05T19:06:28.285Z,100563.72
2022-10-05T19:09:07.826Z,100571.03
2022-10-05T19:11:43.608Z,100543.25
2022-10-05T19:14:24.737Z,100539.03
2022-10-05T19:17:13.372Z,100534.50
2022-10-05T19:19:53.397Z,100511.66
2022-10-05T19:22:33.958Z,100525.91
2022-10-05T19:25:25.070Z,100523.22
2022-10-05T19:28:03.496Z,100551.16
2022-10-05T19:30:46.058Z,100522.38
2022-10-05T19:33:29.882Z,100544.09
2022-10-05T19:36:11.875Z,100551.16
2022-10-05T19:38:52.575Z,100554.53
2022-10-05T19:41:31.132Z,100574.84
2022-10-05T19:44:15.186Z,100566.81
2022-10-05T19:46:55.408Z,100571.47
2022-10-05T19:49:44.799Z,100594.19
2022-10-05T19:52:21.058Z,100600.25
2022-10-05T19:55:05.162Z,100568.09
2022-10-05T19:57:46.427Z,100583.88
2022-10-05T20:00:24.784Z,100562.72
2022-10-05T20:03:09.001Z,100584.59
2022-10-05T20:05:37.517Z,100604.47
2022-10-05T20:08:05.741Z,100601.09
2022-10-05T20:10:34.210Z,100607.16
2022-10-05T20:13:08.687Z,100594.03
2022-10-05T20:15:55.107Z,100607.16
2022-10-05T20:18:57.910Z,100587.81
2022-10-05T20:21:47.756Z,100578.38
2022-10-05T20:24:18.326Z,100539.16
2022-10-05T20:27:05.559Z,100578.38
2022-10-05T20:29:37.054Z,100582.75
2022-10-05T20:32:08.751Z,100581.91
2022-10-05T20:34:37.857Z,100566.09
2022-10-05T20:37:05.639Z,100561.03
2022-10-05T20:39:33.695Z,100559.63
2022-10-05T20:42:01.718Z,100570.75
2022-10-05T20:44:29.646Z,100542.13
2022-10-05T20:47:01.329Z,100535.38
2022-10-05T20:49:31.172Z,100562.00
2022-10-05T20:51:59.675Z,100564.69
2022-10-05T20:54:28.827Z,100546.06
2022-10-05T20:56:57.082Z,100559.34
2022-10-05T20:59:26.368Z,100579.38
2022-10-05T21:01:54.706Z,100586.41
2022-10-05T21:04:26.055Z,100583.19
2022-10-05T21:06:54.712Z,100587.97
2022-10-05T21:09:22.789Z,100580.50
2022-10-05T21:11:52.920Z,100590.66
2022-10-05T21:14:20.893Z,100571.47
2022-10-05T21:16:49.035Z,100561.72
2022-10-05T21:19:17.354Z,100575.00
2022-10-05T21:21:48.000Z,100582.75
2022-10-05T21:24:17.345Z,100589.94
2022-10-05T21:26:45.688Z,100577.81
2022-10-05T21:29:14.036Z,100564.41
2022-10-05T21:31:42.231Z,100571.47
2022-10-05T21:34:10.249Z,100578.53
2022-10-05T21:36:38.458Z,100569.78
2022-10-05T21:39:08.265Z,100553.97
2022-10-05T21:41:36.141Z,100531.25
2022-10-05T21:44:04.243Z,100546.09
2022-10-05T21:46:32.147Z,100566.69
2022-10-05T21:49:00.128Z,100571.31
2022-10-05T21:51:28.786Z,100559.03
2022-10-05T21:54:01.687Z,100556.66
2022-10-05T21:56:34.946Z,100551.28
2022-10-05T21:59:04.044Z,100560.88
2022-10-05T22:01:31.918Z,100572.31
2022-10-05T22:04:00.112Z,100564.56
2022-10-05T22:06:28.376Z,100557.09
2022-10-05T22:08:56.415Z,100551.88
2022-10-05T22:11:24.712Z,100555.94
2022-10-05T22:13:54.517Z,100553.97
2022-10-05T22:16:24.823Z,100543.53
2022-10-05T22:18:53.713Z,100527.34
2022-10-05T22:21:22.135Z,100524.66
2022-10-05T22:23:50.915Z,100552.97
2022-10-05T22:26:22.192Z,100557.50
2022-10-05T22:28:55.671Z,100558.34
2022-10-05T22:31:23.744Z,100545.50
2022-10-05T22:33:51.883Z,100539.16
2022-10-05T22:36:20.131Z,100524.91
2022-10-05T22:38:48.445Z,100536.78
2022-10-05T22:41:18.422Z,100533.09
2022-10-05T22:43:50.287Z,100527.03
2022-10-05T22:46:20.330Z,100500.63
2022-10-05T22:48:48.225Z,100497.09
2022-10-05T22:51:16.299Z,100473.56
2022-10-05T22:53:44.174Z,100498.09
2022-10-05T22:56:14.167Z,100517.31
2022-10-05T22:58:43.579Z,100528.88
2022-10-05T23:01:14.111Z,100502.47
2022-10-05T23:03:44.536Z,100498.50
2022-10-05T23:06:14.735Z,100498.09
2022-10-05T23:08:43.553Z,100489.31
2022-10-05T23:11:13.732Z,100523.38
2022-10-05T23:13:42.136Z,100535.78
2022-10-05T23:16:13.002Z,100536.63
2022-10-05T23:18:41.757Z,100516.47
2022-10-05T23:21:12.152Z,100493.72
2022-10-05T23:23:41.717Z,100484.25
2022-10-05T23:26:11.946Z,100474.41
2022-10-05T23:28:40.365Z,100504.16
2022-10-05T23:31:09.521Z,100518.28
2022-10-05T23:33:37.446Z,100523.38
2022-10-05T23:36:08.533Z,100526.19
2022-10-05T23:38:37.964Z,100512.09
2022-10-05T23:41:06.792Z,100491.00
2022-10-05T23:43:35.024Z,100499.78
2022-10-05T23:46:03.785Z,100517.31
2022-10-05T23:48:32.680Z,100522.94
2022-10-05T23:51:01.613Z,100517.56
2022-10-05T23:53:29.377Z,100526.34
2022-10-05T23:55:58.575Z,100526.59
2022-10-05T23:58:27.235Z,100488.47
